Hovedside
METAR-TAF:

METAR-TAF

Lufthavner :

Vasa lufthavn

Vasa, Finland

breddegrad: 63-03N, lengdegrad: 021-46E, høyde over havet: 4 m

Gjeldene værobservasjon

Denne rapporten ble laget for 13 minutter siden, klokken 14:50 UTC
Vind 4 kt fra Sør-sørøst
Temperatur -21°C
Luftfuktighet 84%
Trykk 1016 hPa
Sikt 10 km eller mer
ingen skyer under 1500 m og ingen bygeskyer

METAR: EFVA 211450Z AUTO 16004KT CAVOK M21/M23 Q1016

Tid: 17:03 (15:03 UTC)

Varsel

Denne rapporten ble laget for 30 minutter siden, klokken 14:33 UTC
Varsel gyldig fra 21. klokken 15 UTC til 22. klokken 15 UTC
Vind 2 kt fra Sør-sørøst
Sikt 10 km eller mer
Få skyer i en høyde av 3000 ft
lett snø
Sannsynlighet 30% :
Midlertidig
fra 21. klokken 17 UTC til 22. klokken 09 UTC
Sikt: 2000 m
Brutte skyer i en høyde av 500 ft

TAF: EFVA 211433Z 2115/2215 15002KT 9999 -SN FEW030 PROB30 TEMPO 2117/2209 2000 BKN005

Værobservasjoner og værvarsel for over 4000 flyplasser (METAR- og TAF-rapporter).

Tilgjengelige stasjoner er representert av de røde og gule prikkene på kartet.

Hold musepekeren over prikken for å se navnet på stasjonen.

Klikk så for å se værobservasjoner og -varsler.

For å forandre kartet kan du klikke på den grønne knappen med svart kryss for å zoome inn, på den grønne knappen med strek for å zoome ut, eller på de grønne pilene for å se tilstøtende kart.


METAR-TAF: